createdAt,value
2018-03-16T00:02:25.138Z,80.20
2018-03-16T00:04:53.442Z,82.39
2018-03-16T00:07:23.722Z,83.01
2018-03-16T00:09:52.009Z,83.49
2018-03-16T00:12:20.282Z,83.66
2018-03-16T00:14:48.560Z,85.44
2018-03-16T00:17:17.578Z,84.00
2018-03-16T00:19:45.858Z,82.98
2018-03-16T00:22:17.954Z,85.65
2018-03-16T00:24:46.998Z,83.43
2018-03-16T00:27:15.286Z,85.32
2018-03-16T00:29:44.362Z,86.88
2018-03-16T00:32:12.659Z,84.72
2018-03-16T00:34:40.959Z,84.41
2018-03-16T00:37:09.250Z,84.04
2018-03-16T00:39:37.729Z,84.71
2018-03-16T00:42:06.027Z,83.54
2018-03-16T00:44:35.117Z,84.11
2018-03-16T00:47:03.414Z,83.66
2018-03-16T00:49:31.692Z,83.67
2018-03-16T00:51:59.973Z,84.32
2018-03-16T00:54:28.254Z,83.91
2018-03-16T00:56:56.550Z,84.42
2018-03-16T00:59:25.595Z,85.12
2018-03-16T01:01:54.029Z,86.65
2018-03-16T01:04:23.058Z,86.07
2018-03-16T01:06:51.321Z,85.18
2018-03-16T01:09:20.366Z,85.70
2018-03-16T01:11:48.639Z,85.58
2018-03-16T01:14:16.916Z,86.52
2018-03-16T01:16:45.198Z,85.99
2018-03-16T01:19:13.474Z,85.50
2018-03-16T01:21:42.245Z,85.79
2018-03-16T01:24:10.522Z,85.93
2018-03-16T01:26:38.802Z,85.64
2018-03-16T01:29:07.074Z,85.90
2018-03-16T01:31:35.374Z,84.61
2018-03-16T01:34:03.646Z,85.07
2018-03-16T01:36:31.927Z,85.46
2018-03-16T01:39:00.210Z,86.85
2018-03-16T01:41:28.492Z,85.43
2018-03-16T01:43:56.773Z,87.60
2018-03-16T01:46:25.042Z,86.75
2018-03-16T01:48:53.328Z,86.36
2018-03-16T01:51:21.622Z,85.56
2018-03-16T01:53:49.899Z,86.10
2018-03-16T01:56:18.190Z,86.28
2018-03-16T01:58:46.478Z,87.02
2018-03-16T02:01:14.745Z,86.91
2018-03-16T02:03:43.030Z,86.75
2018-03-16T02:06:11.298Z,87.12
2018-03-16T02:08:39.566Z,87.87
2018-03-16T02:11:07.850Z,88.24
2018-03-16T02:13:36.114Z,88.45
2018-03-16T02:16:05.163Z,88.64
2018-03-16T02:18:33.443Z,88.63
2018-03-16T02:21:01.726Z,88.73
2018-03-16T02:23:30.909Z,89.07
2018-03-16T02:25:59.193Z,88.67
2018-03-16T02:28:27.478Z,88.89
2018-03-16T02:30:55.767Z,88.40
2018-03-16T02:33:24.038Z,89.03
2018-03-16T02:35:52.324Z,88.42
2018-03-16T02:38:20.586Z,87.58
2018-03-16T02:40:48.873Z,87.54
2018-03-16T02:43:17.168Z,87.64
2018-03-16T02:45:45.436Z,87.44
2018-03-16T02:48:13.720Z,87.66
2018-03-16T02:50:42.003Z,88.08
2018-03-16T02:53:10.286Z,88.38
2018-03-16T02:55:38.575Z,88.22
2018-03-16T02:58:06.857Z,87.98
2018-03-16T03:00:35.132Z,88.58
2018-03-16T03:03:03.410Z,88.13
2018-03-16T03:05:31.681Z,88.05
2018-03-16T03:07:59.969Z,88.01
2018-03-16T03:10:28.252Z,88.21
2018-03-16T03:12:56.522Z,89.22
2018-03-16T03:15:24.802Z,88.97
2018-03-16T03:17:53.087Z,88.79
2018-03-16T03:20:21.365Z,88.64
2018-03-16T03:22:49.639Z,89.52
2018-03-16T03:25:17.916Z,90.25
2018-03-16T03:27:46.245Z,88.99
2018-03-16T03:30:14.526Z,89.13
2018-03-16T03:32:42.801Z,89.22
2018-03-16T03:35:11.078Z,88.76
2018-03-16T03:37:39.344Z,89.10
2018-03-16T03:40:07.627Z,88.37
2018-03-16T03:42:35.898Z,89.13
2018-03-16T03:45:04.178Z,88.82
2018-03-16T03:47:32.445Z,88.96
2018-03-16T03:50:00.735Z,89.10
2018-03-16T03:52:29.013Z,89.42
2018-03-16T03:54:57.289Z,90.37
2018-03-16T03:57:25.593Z,89.74
2018-03-16T03:59:53.858Z,89.96
2018-03-16T04:02:22.121Z,89.94
2018-03-16T04:04:50.406Z,90.93
2018-03-16T04:07:18.687Z,91.04
2018-03-16T04:09:46.962Z,91.44
2018-03-16T04:12:15.241Z,90.42
2018-03-16T04:14:44.288Z,90.50
2018-03-16T04:17:12.552Z,89.64
2018-03-16T04:19:40.819Z,90.42
2018-03-16T04:22:09.110Z,90.83
2018-03-16T04:24:37.377Z,91.55
2018-03-16T04:27:06.896Z,91.06
2018-03-16T04:29:35.163Z,90.91
2018-03-16T04:32:03.448Z,91.33
2018-03-16T04:34:31.722Z,91.36
2018-03-16T04:36:59.994Z,92.02
2018-03-16T04:39:28.640Z,92.30
2018-03-16T04:41:56.910Z,91.70
2018-03-16T04:44:25.183Z,92.15
2018-03-16T04:46:53.457Z,92.36
2018-03-16T04:49:21.740Z,92.68
2018-03-16T04:51:50.021Z,92.48
2018-03-16T04:54:18.308Z,91.39
2018-03-16T04:56:46.582Z,90.52
2018-03-16T04:59:14.878Z,89.47
2018-03-16T05:01:43.316Z,90.53
2018-03-16T05:04:11.585Z,91.44
2018-03-16T05:06:40.622Z,91.18
2018-03-16T05:09:08.898Z,91.66
2018-03-16T05:11:37.180Z,92.25
2018-03-16T05:14:05.453Z,92.46
2018-03-16T05:16:33.741Z,92.87
2018-03-16T05:19:02.027Z,93.08
2018-03-16T05:21:30.294Z,93.25
2018-03-16T05:23:58.575Z,93.25
2018-03-16T05:26:26.842Z,93.27
2018-03-16T05:28:55.239Z,91.77
2018-03-16T05:31:23.531Z,91.58
2018-03-16T05:33:51.803Z,90.35
2018-03-16T05:36:20.078Z,91.63
2018-03-16T05:38:48.366Z,92.56
2018-03-16T05:41:16.631Z,92.05
2018-03-16T05:43:44.910Z,91.83
2018-03-16T05:46:13.198Z,92.69
2018-03-16T05:48:41.469Z,93.09
2018-03-16T05:51:09.749Z,92.33
2018-03-16T05:53:38.040Z,90.11
2018-03-16T05:56:06.309Z,90.98
2018-03-16T05:58:34.594Z,90.38
2018-03-16T06:01:02.862Z,89.67
2018-03-16T06:03:31.924Z,88.91
2018-03-16T06:06:00.215Z,88.92
2018-03-16T06:08:28.486Z,89.15
2018-03-16T06:10:56.766Z,87.82
2018-03-16T06:13:25.038Z,88.04
2018-03-16T06:15:53.317Z,88.85
2018-03-16T06:18:21.602Z,88.92
2018-03-16T06:20:49.869Z,86.91
2018-03-16T06:23:18.138Z,86.53
2018-03-16T06:25:46.417Z,86.07
2018-03-16T06:28:14.693Z,85.72
2018-03-16T06:30:43.222Z,84.65
2018-03-16T06:33:11.512Z,83.17
2018-03-16T06:35:39.784Z,81.67
2018-03-16T06:38:08.066Z,81.05
2018-03-16T06:40:36.928Z,77.44
2018-03-16T06:43:05.198Z,67.50
2018-03-16T06:45:33.470Z,61.47
2018-03-16T06:48:01.754Z,62.87
2018-03-16T06:50:30.022Z,68.11
2018-03-16T06:52:58.306Z,70.78
2018-03-16T06:55:26.593Z,72.04
2018-03-16T06:57:54.862Z,75.04
2018-03-16T07:00:23.908Z,75.72
2018-03-16T07:02:52.208Z,74.75
2018-03-16T07:05:20.474Z,69.95
2018-03-16T07:07:48.766Z,62.47
2018-03-16T07:10:17.045Z,60.60
2018-03-16T07:12:45.314Z,57.28
2018-03-16T07:15:31.194Z,46.39
2018-03-16T07:17:59.546Z,39.38
2018-03-16T07:20:27.764Z,38.60
2018-03-16T07:22:56.050Z,37.91
2018-03-16T07:25:24.598Z,37.84
2018-03-16T07:27:52.889Z,37.54
2018-03-16T07:30:21.185Z,36.93
2018-03-16T07:32:49.478Z,34.87
2018-03-16T07:35:17.762Z,34.76
2018-03-16T07:37:46.062Z,35.58
2018-03-16T07:40:14.350Z,35.42
2018-03-16T07:42:43.390Z,32.61
2018-03-16T07:45:11.694Z,28.36
2018-03-16T07:47:39.981Z,31.27
2018-03-16T07:50:08.261Z,33.19
2018-03-16T07:52:36.575Z,33.93
2018-03-16T07:57:48.054Z,28.21
2018-03-16T08:00:16.334Z,28.25
2018-03-16T08:02:44.610Z,26.14
2018-03-16T08:05:12.906Z,24.84
2018-03-16T08:07:41.181Z,23.72
2018-03-16T08:10:10.243Z,23.30
2018-03-16T08:12:38.546Z,22.28
2018-03-16T08:15:06.828Z,21.60
2018-03-16T08:17:35.109Z,23.09
2018-03-16T08:20:03.418Z,23.42
2018-03-16T08:22:32.465Z,22.46
2018-03-16T08:25:00.748Z,22.26
2018-03-16T08:27:29.047Z,22.49
2018-03-16T08:29:57.326Z,21.66
2018-03-16T08:32:25.607Z,20.10
2018-03-16T08:34:53.922Z,20.96
2018-03-16T08:37:22.983Z,21.20
2018-03-16T08:39:51.283Z,21.28
2018-03-16T08:42:19.576Z,22.48
2018-03-16T08:44:47.879Z,20.98
2018-03-16T08:47:16.157Z,20.89
2018-03-16T08:49:44.453Z,19.44
2018-03-16T08:52:12.746Z,19.12
2018-03-16T08:54:41.293Z,26.37
2018-03-16T08:57:10.340Z,27.04
2018-03-16T08:59:38.630Z,26.06
2018-03-16T09:02:06.924Z,31.48
2018-03-16T09:04:35.241Z,31.81
2018-03-16T09:07:04.278Z,28.12
2018-03-16T09:09:32.571Z,26.07
2018-03-16T09:12:00.850Z,25.41
2018-03-16T09:14:29.133Z,32.65
2018-03-16T09:16:57.421Z,34.38
2018-03-16T09:19:26.834Z,37.56
2018-03-16T09:21:55.123Z,35.98
2018-03-16T09:24:23.415Z,37.25
2018-03-16T09:26:51.699Z,35.53
2018-03-16T09:29:20.551Z,33.49
2018-03-16T09:31:48.847Z,29.79
2018-03-16T09:34:17.127Z,24.90
2018-03-16T09:36:45.426Z,19.77
2018-03-16T09:39:13.735Z,19.00
2018-03-16T09:41:42.029Z,17.74
2018-03-16T09:44:10.312Z,18.08
2018-03-16T09:46:38.703Z,21.07
2018-03-16T09:49:06.999Z,28.38
2018-03-16T09:51:35.274Z,32.21
2018-03-16T09:54:03.559Z,36.18
2018-03-16T09:56:31.858Z,38.82
2018-03-16T09:59:00.138Z,40.82
2018-03-16T10:01:28.418Z,41.60
2018-03-16T10:03:56.711Z,42.65
2018-03-16T10:06:24.990Z,44.87
2018-03-16T10:08:53.297Z,46.65
2018-03-16T10:11:22.373Z,46.89
2018-03-16T10:13:50.642Z,47.04
2018-03-16T10:16:18.930Z,43.44
2018-03-16T10:18:47.218Z,44.54
2018-03-16T10:21:15.493Z,42.75
2018-03-16T10:23:43.789Z,45.60
2018-03-16T10:26:12.073Z,46.66
2018-03-16T10:28:40.356Z,45.28
2018-03-16T10:31:09.953Z,44.96
2018-03-16T10:33:38.235Z,40.20
2018-03-16T10:36:07.290Z,38.23
2018-03-16T10:38:35.573Z,32.37
2018-03-16T10:41:03.879Z,29.11
2018-03-16T10:43:32.173Z,32.19
2018-03-16T10:46:00.486Z,33.36
2018-03-16T10:48:29.540Z,31.33
2018-03-16T10:50:57.823Z,34.02
2018-03-16T10:53:26.127Z,35.70
2018-03-16T10:55:54.562Z,37.46
2018-03-16T10:58:22.846Z,38.27
2018-03-16T11:00:56.711Z,40.18
2018-03-16T11:03:25.770Z,40.75
2018-03-16T11:05:54.975Z,44.12
2018-03-16T11:08:33.310Z,45.33
2018-03-16T11:11:01.590Z,46.73
2018-03-16T11:13:29.894Z,50.30
2018-03-16T11:15:58.194Z,52.10
2018-03-16T11:18:26.495Z,52.07
2018-03-16T11:20:54.770Z,54.96
2018-03-16T11:23:23.062Z,54.23
2018-03-16T11:25:51.350Z,51.45
2018-03-16T11:28:19.637Z,47.92
2018-03-16T11:30:47.930Z,44.72
2018-03-16T11:33:16.208Z,39.01
2018-03-16T11:35:44.498Z,38.30
2018-03-16T11:38:12.795Z,35.17
2018-03-16T11:40:41.841Z,34.36
2018-03-16T11:43:10.122Z,35.74
2018-03-16T11:45:38.430Z,39.94
2018-03-16T11:48:06.706Z,40.08
2018-03-16T11:50:36.230Z,40.61
2018-03-16T11:53:04.542Z,38.51
2018-03-16T11:55:32.817Z,39.35
2018-03-16T11:58:01.123Z,38.45
2018-03-16T12:00:29.418Z,39.56
2018-03-16T12:02:57.699Z,38.69
2018-03-16T12:05:26.017Z,40.26
2018-03-16T12:07:54.298Z,40.86
2018-03-16T12:10:22.580Z,43.39
2018-03-16T12:12:50.891Z,43.26
2018-03-16T12:15:19.171Z,44.93
2018-03-16T12:17:47.442Z,44.48
2018-03-16T12:20:16.507Z,45.62
2018-03-16T12:22:44.782Z,39.13
2018-03-16T12:25:13.058Z,35.30
2018-03-16T12:27:41.354Z,33.39
2018-03-16T12:30:09.634Z,30.86
2018-03-16T12:32:37.934Z,34.71
2018-03-16T12:35:06.974Z,36.17
2018-03-16T12:37:35.267Z,40.24
2018-03-16T12:40:03.563Z,42.12
2018-03-16T12:42:32.718Z,42.45
2018-03-16T12:45:01.002Z,42.45
2018-03-16T12:47:29.293Z,43.05
2018-03-16T12:49:57.561Z,39.68
2018-03-16T12:52:25.843Z,41.28
2018-03-16T12:54:54.145Z,42.81
2018-03-16T12:57:22.430Z,43.31
2018-03-16T12:59:50.711Z,44.62
2018-03-16T13:02:19.008Z,46.62
2018-03-16T13:04:47.299Z,47.27
2018-03-16T13:07:15.585Z,45.61
2018-03-16T13:09:43.896Z,46.09
2018-03-16T13:12:12.181Z,48.16
2018-03-16T13:14:40.462Z,50.94
2018-03-16T13:17:08.801Z,51.05
2018-03-16T13:19:37.035Z,52.13
2018-03-16T13:22:05.322Z,52.48
2018-03-16T13:24:33.614Z,47.38
2018-03-16T13:27:01.895Z,45.62
2018-03-16T13:29:30.184Z,43.38
2018-03-16T13:31:58.483Z,43.38
2018-03-16T13:34:26.768Z,43.11
2018-03-16T13:36:55.059Z,43.89
2018-03-16T13:39:23.345Z,43.01
2018-03-16T13:41:51.625Z,43.41
2018-03-16T13:44:19.913Z,42.98
2018-03-16T13:46:48.204Z,40.99
2018-03-16T13:49:17.266Z,41.27
2018-03-16T13:51:45.553Z,42.94
2018-03-16T13:54:14.343Z,44.01
2018-03-16T13:56:42.630Z,44.09
2018-03-16T13:59:10.917Z,43.13
2018-03-16T14:01:39.214Z,44.02
2018-03-16T14:04:08.255Z,44.56
2018-03-16T14:06:36.558Z,45.25
2018-03-16T14:09:04.869Z,43.04
2018-03-16T14:11:33.913Z,43.55
2018-03-16T14:14:02.204Z,43.70
2018-03-16T14:16:30.498Z,43.70
2018-03-16T14:18:58.778Z,42.89
2018-03-16T14:21:27.071Z,41.92
2018-03-16T14:23:55.375Z,40.49
2018-03-16T14:26:24.423Z,40.18
2018-03-16T14:28:52.719Z,43.75
2018-03-16T14:31:21.017Z,42.20
2018-03-16T14:33:49.302Z,43.75
2018-03-16T14:36:17.600Z,40.88
2018-03-16T14:38:46.650Z,42.31
2018-03-16T14:41:15.169Z,38.90
2018-03-16T14:43:43.446Z,40.39
2018-03-16T14:46:11.726Z,42.80
2018-03-16T14:48:40.030Z,44.04
2018-03-16T14:51:09.070Z,43.61
2018-03-16T14:53:37.362Z,42.84
2018-03-16T14:56:05.633Z,42.21
2018-03-16T14:58:33.915Z,42.08
2018-03-16T15:01:02.261Z,44.33
2018-03-16T15:03:31.314Z,43.73
2018-03-16T15:05:59.594Z,42.26
2018-03-16T15:08:27.884Z,42.59
2018-03-16T15:10:56.162Z,43.10
2018-03-16T15:13:24.442Z,40.71
2018-03-16T15:15:52.734Z,43.08
2018-03-16T15:18:21.009Z,42.56
2018-03-16T15:20:49.303Z,41.51
2018-03-16T15:23:17.641Z,43.06
2018-03-16T15:25:45.927Z,42.00
2018-03-16T15:28:14.990Z,43.19
2018-03-16T15:30:43.261Z,42.27
2018-03-16T15:33:12.560Z,43.44
2018-03-16T15:35:41.578Z,43.23
2018-03-16T15:38:09.833Z,44.75
2018-03-16T15:40:38.869Z,43.97
2018-03-16T15:43:07.116Z,46.02
2018-03-16T15:45:36.131Z,43.72
2018-03-16T15:48:04.400Z,45.77
2018-03-16T15:50:32.652Z,43.96
2018-03-16T15:53:00.898Z,44.13
2018-03-16T15:55:29.163Z,43.00
2018-03-16T15:57:57.404Z,43.42
2018-03-16T16:00:26.426Z,43.65
2018-03-16T16:02:54.696Z,42.33
2018-03-16T16:05:22.947Z,43.49
2018-03-16T16:07:51.204Z,42.50
2018-03-16T16:10:19.457Z,43.13
2018-03-16T16:12:47.729Z,43.72
2018-03-16T16:15:15.997Z,44.25
2018-03-16T16:17:45.016Z,43.79
2018-03-16T16:20:13.286Z,45.21
2018-03-16T16:22:41.546Z,44.32
2018-03-16T16:25:10.556Z,45.97
2018-03-16T16:27:38.828Z,47.01
2018-03-16T16:30:07.842Z,47.54
2018-03-16T16:32:37.754Z,48.83
2018-03-16T16:35:06.028Z,47.11
2018-03-16T16:37:35.372Z,50.15
2018-03-16T16:40:03.622Z,47.55
2018-03-16T16:42:32.039Z,49.69
2018-03-16T16:45:00.281Z,51.36
2018-03-16T16:47:28.533Z,50.85
2018-03-16T16:49:56.800Z,51.22
2018-03-16T16:52:25.041Z,50.29
2018-03-16T16:54:53.308Z,51.96
2018-03-16T16:57:22.304Z,52.39
2018-03-16T16:59:50.564Z,52.97
2018-03-16T17:02:19.573Z,53.10
2018-03-16T17:04:48.599Z,51.36
2018-03-16T17:07:16.853Z,54.46
2018-03-16T17:09:46.210Z,54.48
2018-03-16T17:12:15.149Z,54.43
2018-03-16T17:14:44.172Z,54.17
2018-03-16T17:17:12.417Z,55.98
2018-03-16T17:19:41.420Z,54.81
2018-03-16T17:22:10.696Z,56.50
2018-03-16T17:24:38.933Z,56.66
2018-03-16T17:27:07.180Z,56.08
2018-03-16T17:29:36.383Z,57.81
2018-03-16T17:32:05.385Z,57.53
2018-03-16T17:34:34.388Z,58.11
2018-03-16T17:37:03.886Z,60.38
2018-03-16T17:39:32.891Z,61.43
2018-03-16T17:42:01.896Z,61.20
2018-03-16T17:44:30.156Z,61.94
2018-03-16T17:46:59.176Z,62.63
2018-03-16T17:49:27.429Z,63.00
2018-03-16T17:51:56.457Z,63.71
2018-03-16T17:54:24.716Z,64.31
2018-03-16T17:56:53.742Z,65.57
2018-03-16T17:59:21.989Z,66.43
2018-03-16T18:01:51.017Z,67.05
2018-03-16T18:04:19.256Z,67.57
2018-03-16T18:06:47.512Z,66.18
2018-03-16T18:09:16.678Z,67.49
2018-03-16T18:11:44.917Z,67.01
2018-03-16T18:14:13.181Z,67.19
2018-03-16T18:16:41.428Z,65.37
2018-03-16T18:19:09.681Z,65.53
2018-03-16T18:21:38.709Z,65.37
2018-03-16T18:24:06.957Z,65.11
2018-03-16T18:26:35.976Z,65.65
2018-03-16T18:29:04.238Z,67.31
2018-03-16T18:31:33.248Z,69.03
2018-03-16T18:34:01.534Z,69.01
2018-03-16T18:36:29.736Z,69.84
2018-03-16T18:38:57.986Z,70.84
2018-03-16T18:41:26.229Z,71.59
2018-03-16T18:43:54.496Z,71.59
2018-03-16T18:46:22.736Z,72.69
2018-03-16T18:48:50.987Z,74.18
2018-03-16T18:51:20.007Z,75.17
2018-03-16T18:53:48.240Z,75.88
2018-03-16T18:56:16.500Z,77.41
2018-03-16T18:58:44.753Z,78.37
2018-03-16T19:01:13.010Z,78.67
2018-03-16T19:03:42.012Z,76.91
2018-03-16T19:06:10.409Z,76.58
2018-03-16T19:08:38.654Z,77.93
2018-03-16T19:11:07.662Z,78.38
2018-03-16T19:13:36.687Z,79.21
2018-03-16T19:16:04.929Z,79.60
2018-03-16T19:18:33.169Z,78.99
2018-03-16T19:21:01.420Z,80.77
2018-03-16T19:23:29.981Z,81.46
2018-03-16T19:25:59.001Z,81.52
2018-03-16T19:28:27.260Z,82.74
2018-03-16T19:30:56.282Z,82.44
2018-03-16T19:33:24.524Z,82.89
2018-03-16T19:35:52.780Z,81.38
2018-03-16T19:38:21.037Z,80.58
2018-03-16T19:40:49.283Z,81.93
2018-03-16T19:43:18.309Z,82.06
2018-03-16T19:45:46.552Z,82.59
2018-03-16T19:48:15.573Z,83.26
2018-03-16T19:50:43.833Z,83.17
2018-03-16T19:53:12.841Z,83.61
2018-03-16T19:55:41.850Z,83.52
2018-03-16T19:58:10.115Z,84.46
2018-03-16T20:00:39.178Z,83.81
2018-03-16T20:03:07.364Z,84.87
2018-03-16T20:05:35.616Z,85.54
2018-03-16T20:08:03.861Z,84.75
2018-03-16T20:10:32.113Z,84.97
2018-03-16T20:13:00.360Z,85.62
2018-03-16T20:15:28.617Z,86.03
2018-03-16T20:17:56.856Z,86.13
2018-03-16T20:20:25.124Z,85.38
2018-03-16T20:22:53.368Z,85.71
2018-03-16T20:25:21.615Z,86.08
2018-03-16T20:27:49.880Z,85.51
2018-03-16T20:30:18.133Z,86.65
2018-03-16T20:32:46.372Z,86.98
2018-03-16T20:35:14.621Z,87.38
2018-03-16T20:37:42.880Z,86.06
2018-03-16T20:40:11.124Z,87.17
2018-03-16T20:42:39.387Z,86.55
2018-03-16T20:45:07.652Z,87.21
2018-03-16T20:47:36.655Z,87.20
2018-03-16T20:50:05.699Z,87.43
2018-03-16T20:52:33.937Z,88.19
2018-03-16T20:55:02.947Z,88.52
2018-03-16T20:57:31.977Z,88.50
2018-03-16T21:00:00.224Z,88.26
2018-03-16T21:02:28.477Z,88.60
2018-03-16T21:04:57.485Z,88.93
2018-03-16T21:07:25.744Z,88.70
2018-03-16T21:09:53.980Z,88.29
2018-03-16T21:12:22.241Z,88.31
2018-03-16T21:14:50.507Z,88.49
2018-03-16T21:17:19.512Z,88.67
2018-03-16T21:19:47.768Z,88.46
2018-03-16T21:22:16.009Z,88.25
2018-03-16T21:24:44.257Z,88.90
2018-03-16T21:27:13.272Z,87.61
2018-03-16T21:29:41.510Z,87.69
2018-03-16T21:32:10.520Z,88.37
2018-03-16T21:34:39.520Z,88.13
2018-03-16T21:37:07.756Z,88.97
2018-03-16T21:39:36.889Z,88.01
2018-03-16T21:42:05.916Z,88.35
2018-03-16T21:44:34.162Z,88.60
2018-03-16T21:47:03.170Z,89.24
2018-03-16T21:49:32.226Z,89.26
2018-03-16T21:52:00.478Z,89.56
2018-03-16T21:54:28.767Z,89.69
2018-03-16T21:56:57.008Z,89.80
2018-03-16T21:59:26.033Z,86.89
2018-03-16T22:01:54.280Z,87.72
2018-03-16T22:04:23.285Z,88.39
2018-03-16T22:06:52.297Z,88.98
2018-03-16T22:09:20.548Z,89.35
2018-03-16T22:11:49.710Z,89.67
2018-03-16T22:14:17.982Z,88.22
2018-03-16T22:16:46.220Z,89.21
2018-03-16T22:19:15.241Z,89.57
2018-03-16T22:21:43.541Z,89.36
2018-03-16T22:24:11.764Z,88.52
2018-03-16T22:26:40.780Z,88.60
2018-03-16T22:29:09.800Z,89.14
2018-03-16T22:31:38.068Z,89.42
2018-03-16T22:34:06.305Z,89.32
2018-03-16T22:36:34.584Z,89.07
2018-03-16T22:39:02.905Z,89.94
2018-03-16T22:41:31.699Z,89.14
2018-03-16T22:43:59.960Z,89.65
2018-03-16T22:46:28.985Z,89.65
2018-03-16T22:48:57.245Z,89.22
2018-03-16T22:51:26.263Z,89.25
2018-03-16T22:53:54.511Z,89.29
2018-03-16T22:56:23.518Z,89.95
2018-03-16T22:58:52.542Z,90.50
2018-03-16T23:01:20.843Z,90.56
2018-03-16T23:03:49.062Z,90.42
2018-03-16T23:06:17.321Z,90.54
2018-03-16T23:08:45.573Z,90.40
2018-03-16T23:11:13.820Z,90.42
2018-03-16T23:13:43.865Z,90.24
2018-03-16T23:16:12.657Z,90.23
2018-03-16T23:18:40.905Z,90.27
2018-03-16T23:21:09.930Z,90.45
2018-03-16T23:23:38.168Z,90.29
2018-03-16T23:26:06.408Z,88.09
2018-03-16T23:28:34.657Z,87.56
2018-03-16T23:31:03.665Z,88.60
2018-03-16T23:33:31.991Z,89.35
2018-03-16T23:36:00.247Z,89.72
2018-03-16T23:38:28.501Z,89.66
2018-03-16T23:40:57.517Z,89.68
2018-03-16T23:43:25.755Z,89.85
2018-03-16T23:45:54.774Z,90.12
2018-03-16T23:48:24.612Z,90.60
2018-03-16T23:50:53.006Z,90.26
2018-03-16T23:53:21.262Z,90.71
2018-03-16T23:55:49.521Z,90.16
2018-03-16T23:58:18.542Z,90.04
